Time;durP1;ratioP1;P1;durP2;ratioP2;P2;SDS_P1;SDS_P2;PMS_P1;PMS_P2;Temp;Humidity;BMP_temperature;BMP_pressure;BME280_temperature;BME280_humidity;BME280_pressure;Samples;Min_cycle;Max_cycle;Signal;HPM_P1;HPM_P2
2022/12/13 00:02:16;;;;;;;28.03;14.43;;;;;-5.60;100554.00;;;;9748427;30;20326;-78
2022/12/13 00:07:18;;;;;;;23.63;13.33;;;;;-5.50;100551.00;;;;9745273;30;20203;-77
2022/12/13 00:12:20;;;;;;;26.40;13.13;;;;;-5.50;100550.00;;;;9738879;30;20240;-78
2022/12/13 00:17:22;;;;;;;29.37;12.60;;;;;-5.40;100555.00;;;;9721062;30;20233;-78
2022/12/13 00:22:24;;;;;;;26.17;12.47;;;;;-5.40;100542.00;;;;9771796;30;20228;-76
2022/12/13 00:27:26;;;;;;;20.70;10.33;;;;;-5.50;100539.00;;;;9747476;30;20261;-78
2022/12/13 00:32:28;;;;;;;28.57;12.87;;;;;-5.40;100544.00;;;;9777272;30;20218;-77
2022/12/13 00:37:30;;;;;;;24.30;12.03;;;;;-5.40;100535.00;;;;9766802;30;20330;-78
2022/12/13 00:42:35;;;;;;;27.43;13.17;;;;;-5.50;100527.00;;;;9744901;30;20285;-78
2022/12/13 00:47:36;;;;;;;30.47;13.10;;;;;-5.50;100518.00;;;;9722569;30;20233;-78
2022/12/13 00:52:38;;;;;;;26.70;11.00;;;;;-5.70;100515.00;;;;9775218;30;20252;-77
2022/12/13 00:57:40;;;;;;;32.33;13.43;;;;;-5.80;100525.00;;;;9771544;30;20190;-77
2022/12/13 01:02:42;;;;;;;29.83;12.43;;;;;-5.90;100510.00;;;;9769841;30;20209;-77
2022/12/13 01:07:46;;;;;;;27.57;12.37;;;;;-6.00;100517.00;;;;9769823;30;20194;-78
2022/12/13 01:12:48;;;;;;;24.20;12.87;;;;;-6.00;100514.00;;;;9755718;30;20198;-77
2022/12/13 01:17:50;;;;;;;30.97;12.67;;;;;-6.10;100516.00;;;;9755824;30;20273;-78
2022/12/13 01:22:52;;;;;;;21.90;10.17;;;;;-6.00;100513.00;;;;9769420;30;20226;-77
2022/12/13 01:27:53;;;;;;;20.67;10.87;;;;;-6.10;100506.00;;;;9755262;30;20710;-77
2022/12/13 01:32:56;;;;;;;22.23;11.70;;;;;-6.10;100501.00;;;;9769662;30;20201;-77
2022/12/13 01:37:58;;;;;;;24.23;11.73;;;;;-6.10;100509.00;;;;9753826;30;20262;-78
2022/12/13 01:43:01;;;;;;;23.23;11.83;;;;;-6.20;100522.00;;;;9753100;30;20233;-77
2022/12/13 01:48:21;;;;;;;25.33;12.37;;;;;-6.20;100512.00;;;;9719937;30;20669;-78
2022/12/13 01:53:27;;;;;;;22.57;12.40;;;;;-6.30;100511.00;;;;9746217;30;20214;-78
2022/12/13 01:58:30;;;;;;;27.83;11.63;;;;;-6.30;100512.00;;;;9753500;30;20284;-78
2022/12/13 02:03:33;;;;;;;23.80;12.40;;;;;-6.40;100511.00;;;;9738900;30;20229;-77
2022/12/13 02:08:37;;;;;;;23.83;11.13;;;;;-6.50;100490.00;;;;9719129;30;20210;-77
2022/12/13 02:13:39;;;;;;;23.57;11.93;;;;;-6.50;100504.00;;;;9731016;30;20775;-78
2022/12/13 02:19:06;;;;;;;26.97;12.03;;;;;-6.50;100501.00;;;;9716129;30;20221;-78
2022/12/13 02:24:35;;;;;;;24.37;12.13;;;;;-6.40;100502.00;;;;9747081;30;20217;-78
2022/12/13 02:30:16;;;;;;;27.93;11.33;;;;;-6.50;100489.00;;;;9752379;30;20233;-78
2022/12/13 02:35:22;;;;;;;29.20;12.37;;;;;-6.50;100494.00;;;;9761709;30;20214;-78
2022/12/13 02:40:50;;;;;;;22.93;12.23;;;;;-6.50;100486.00;;;;9735018;30;20217;-78
2022/12/13 02:45:59;;;;;;;27.67;10.63;;;;;-6.40;100491.00;;;;9738546;30;20567;-77
2022/12/13 02:51:04;;;;;;;18.90;10.40;;;;;-6.40;100482.00;;;;9755896;30;20245;-77
2022/12/13 02:56:06;;;;;;;23.50;9.80;;;;;-6.40;100472.00;;;;9754944;30;20205;-78
2022/12/13 03:01:13;;;;;;;23.10;12.60;;;;;-6.40;100469.00;;;;9720174;30;20210;-78
2022/12/13 03:06:59;;;;;;;22.60;10.57;;;;;-6.40;100472.00;;;;9750307;30;20242;-78
2022/12/13 03:17:41;;;;;;;24.43;11.07;;;;;-6.30;100473.00;;;;9762766;30;20217;-77
2022/12/13 03:22:43;;;;;;;26.07;10.77;;;;;-6.30;100468.00;;;;9749795;30;20221;-77
2022/12/13 03:27:45;;;;;;;19.50;10.23;;;;;-6.20;100476.00;;;;9753203;30;20213;-77
2022/12/13 03:32:47;;;;;;;22.40;10.33;;;;;-6.20;100474.00;;;;9769617;30;20617;-77
2022/12/13 03:37:49;;;;;;;27.27;12.10;;;;;-6.20;100463.00;;;;9735001;30;20244;-77
2022/12/13 03:42:51;;;;;;;19.63;10.00;;;;;-6.20;100466.00;;;;9706948;30;20222;-77
2022/12/13 03:47:53;;;;;;;20.20;9.87;;;;;-6.20;100462.00;;;;9747280;30;20206;-77
2022/12/13 03:53:02;;;;;;;20.30;10.00;;;;;-6.30;100456.00;;;;9734274;30;20741;-77
2022/12/13 03:58:04;;;;;;;27.73;12.37;;;;;-6.30;100448.00;;;;9748481;30;20766;-77
2022/12/13 04:03:09;;;;;;;20.30;10.50;;;;;-6.30;100445.00;;;;9749515;30;20214;-77
2022/12/13 04:08:11;;;;;;;22.33;10.03;;;;;-6.30;100445.00;;;;9769767;30;20221;-77
2022/12/13 04:13:32;;;;;;;27.83;11.23;;;;;-6.30;100439.00;;;;9758547;30;20293;-77
2022/12/13 04:18:34;;;;;;;21.27;10.70;;;;;-6.20;100450.00;;;;9763943;30;20202;-77
2022/12/13 04:23:36;;;;;;;18.80;9.57;;;;;-6.20;100431.00;;;;9769056;30;20232;-77
2022/12/13 04:28:37;;;;;;;25.03;10.97;;;;;-6.00;100438.00;;;;9740222;30;20272;-77
2022/12/13 04:33:39;;;;;;;23.10;10.60;;;;;-6.00;100438.00;;;;9761402;30;20217;-77
2022/12/13 04:38:41;;;;;;;23.83;11.23;;;;;-6.00;100424.00;;;;9767694;30;20272;-77
2022/12/13 04:43:48;;;;;;;21.40;9.17;;;;;-6.00;100426.00;;;;9768185;30;20705;-77
2022/12/13 04:48:50;;;;;;;19.40;8.90;;;;;-6.10;100424.00;;;;9753061;30;20700;-77
2022/12/13 04:53:52;;;;;;;21.03;10.00;;;;;-6.20;100413.00;;;;9767729;30;20240;-77
2022/12/13 04:58:54;;;;;;;14.03;8.07;;;;;-6.30;100426.00;;;;9752746;30;20212;-77
2022/12/13 05:03:56;;;;;;;17.63;8.37;;;;;-6.40;100440.00;;;;9767038;30;20213;-78
2022/12/13 05:08:59;;;;;;;17.90;8.67;;;;;-6.50;100431.00;;;;9770870;30;20296;-78
2022/12/13 05:14:02;;;;;;;14.43;7.80;;;;;-6.60;100434.00;;;;9756878;30;20240;-78
2022/12/13 05:19:03;;;;;;;17.13;9.07;;;;;-6.70;100423.00;;;;9769212;30;20237;-78
2022/12/13 05:24:06;;;;;;;13.07;7.73;;;;;-6.80;100440.00;;;;9769479;30;20320;-78
2022/12/13 05:29:08;;;;;;;28.33;9.50;;;;;-6.80;100430.00;;;;9769374;30;20291;-78
2022/12/13 05:34:10;;;;;;;23.03;12.60;;;;;-6.90;100430.00;;;;9754284;30;20574;-78
2022/12/13 05:39:12;;;;;;;15.40;7.70;;;;;-6.90;100426.00;;;;9733934;30;20257;-78
2022/12/13 05:44:31;;;;;;;18.83;8.17;;;;;-7.00;100424.00;;;;9759750;30;20237;-77
2022/12/13 05:49:33;;;;;;;14.17;7.80;;;;;-7.00;100430.00;;;;9766129;30;20244;-77
2022/12/13 05:54:35;;;;;;;18.93;8.53;;;;;-7.10;100417.00;;;;9731680;30;20209;-77
2022/12/13 05:59:37;;;;;;;18.60;9.27;;;;;-7.20;100418.00;;;;9731468;30;20210;-77
2022/12/13 06:04:39;;;;;;;19.40;9.47;;;;;-7.20;100403.00;;;;9752408;30;20245;-77
2022/12/13 06:09:41;;;;;;;18.53;9.13;;;;;-7.20;100408.00;;;;9746730;30;20201;-77
2022/12/13 06:14:42;;;;;;;17.97;8.67;;;;;-7.30;100413.00;;;;9766930;30;20207;-77
2022/12/13 06:19:45;;;;;;;16.53;8.37;;;;;-7.30;100399.00;;;;9765581;30;20220;-77
2022/12/13 06:24:47;;;;;;;21.30;10.67;;;;;-7.30;100416.00;;;;9779738;30;20214;-77
2022/12/13 06:29:49;;;;;;;22.23;11.23;;;;;-7.30;100408.00;;;;9740847;30;20249;-77
2022/12/13 06:34:50;;;;;;;24.27;10.40;;;;;-7.30;100413.00;;;;9741634;30;20206;-77
2022/12/13 06:39:52;;;;;;;22.83;9.83;;;;;-7.30;100397.00;;;;9735311;30;20217;-77
2022/12/13 06:44:54;;;;;;;15.50;8.17;;;;;-7.30;100393.00;;;;9729687;30;20276;-77
2022/12/13 06:49:57;;;;;;;15.43;8.50;;;;;-7.30;100390.00;;;;9764059;30;20678;-77
2022/12/13 06:55:06;;;;;;;16.93;9.43;;;;;-7.20;100395.00;;;;9749204;30;20690;-77
2022/12/13 07:00:09;;;;;;;14.70;8.60;;;;;-7.10;100395.00;;;;9763246;30;20505;-77
2022/12/13 07:05:11;;;;;;;16.70;8.70;;;;;-7.00;100396.00;;;;9739122;30;20261;-77
2022/12/13 07:10:13;;;;;;;16.13;7.30;;;;;-7.00;100391.00;;;;9749014;30;20220;-77
2022/12/13 07:15:23;;;;;;;18.97;8.97;;;;;-6.90;100395.00;;;;9726989;30;20300;-77
2022/12/13 07:20:25;;;;;;;20.40;8.90;;;;;-6.90;100406.00;;;;9718122;30;20210;-77
2022/12/13 07:25:27;;;;;;;16.93;9.00;;;;;-6.90;100403.00;;;;9727522;30;20733;-77
2022/12/13 07:30:37;;;;;;;17.87;9.57;;;;;-6.90;100401.00;;;;9762257;30;20252;-77
2022/12/13 07:35:42;;;;;;;21.30;8.70;;;;;-6.90;100391.00;;;;9747729;30;20229;-77
2022/12/13 07:40:44;;;;;;;16.37;9.23;;;;;-6.80;100402.00;;;;9745019;30;20320;-77
2022/12/13 07:45:46;;;;;;;16.57;8.97;;;;;-6.80;100416.00;;;;9747516;30;20217;-77
2022/12/13 07:50:48;;;;;;;20.60;10.13;;;;;-6.70;100428.00;;;;9776412;30;20633;-77
2022/12/13 07:55:55;;;;;;;16.63;8.77;;;;;-6.60;100419.00;;;;9761447;30;20548;-77
2022/12/13 08:01:06;;;;;;;19.50;10.23;;;;;-6.60;100427.00;;;;9744483;30;20221;-77
2022/12/13 08:06:10;;;;;;;17.20;9.33;;;;;-6.40;100426.00;;;;9725463;30;20279;-77
2022/12/13 08:11:16;;;;;;;17.50;9.00;;;;;-6.20;100424.00;;;;9730960;30;20206;-77
2022/12/13 08:16:18;;;;;;;23.00;10.17;;;;;-6.00;100440.00;;;;9730776;30;20232;-77
2022/12/13 08:21:38;;;;;;;25.33;12.80;;;;;-5.80;100448.00;;;;9731870;30;20199;-77
2022/12/13 08:27:01;;;;;;;24.70;11.47;;;;;-5.50;100451.00;;;;9752013;30;20272;-77
2022/12/13 08:32:07;;;;;;;23.37;11.87;;;;;-5.30;100453.00;;;;9753973;30;20665;-77
2022/12/13 08:37:09;;;;;;;20.30;11.93;;;;;-5.10;100454.00;;;;9743541;30;20222;-77
2022/12/13 08:42:13;;;;;;;33.57;13.90;;;;;-4.80;100455.00;;;;9752040;30;20233;-77
2022/12/13 08:47:23;;;;;;;32.17;12.57;;;;;-4.60;100465.00;;;;9750542;30;20606;-77
2022/12/13 08:52:27;;;;;;;34.10;14.13;;;;;-4.40;100480.00;;;;9769279;30;20206;-78
2022/12/13 08:57:29;;;;;;;30.00;13.83;;;;;-4.30;100473.00;;;;9755881;30;20658;-77
2022/12/13 09:02:31;;;;;;;27.97;13.47;;;;;-4.00;100456.00;;;;9756569;30;20544;-78
2022/12/13 09:07:40;;;;;;;27.63;13.53;;;;;-3.30;100473.00;;;;9744920;30;20618;-78
2022/12/13 09:12:42;;;;;;;31.63;14.20;;;;;-2.60;100473.00;;;;9759059;30;20217;-77
2022/12/13 09:17:43;;;;;;;25.77;13.67;;;;;-2.40;100476.00;;;;9768197;30;20297;-78
2022/12/13 09:22:53;;;;;;;22.50;11.47;;;;;-2.50;100474.00;;;;9755109;30;20736;-78
2022/12/13 09:28:07;;;;;;;20.80;12.03;;;;;-2.90;100463.00;;;;9771496;30;20229;-78
2022/12/13 09:33:09;;;;;;;22.77;11.60;;;;;-2.20;100482.00;;;;9737768;30;20635;-78
2022/12/13 09:38:33;;;;;;;26.83;13.47;;;;;-1.60;100479.00;;;;9738344;30;20347;-78
2022/12/13 09:43:37;;;;;;;26.50;13.47;;;;;-1.80;100474.00;;;;9722636;30;20209;-78
2022/12/13 09:48:45;;;;;;;23.43;12.50;;;;;-2.00;100458.00;;;;9754896;30;20304;-78
2022/12/13 09:53:51;;;;;;;30.67;14.67;;;;;-1.70;100458.00;;;;9745035;30;20630;-78
2022/12/13 09:58:58;;;;;;;23.87;13.33;;;;;-1.60;100458.00;;;;9746466;30;20211;-77
2022/12/13 10:04:00;;;;;;;38.57;16.87;;;;;-1.30;100460.00;;;;9742580;30;20221;-77
2022/12/13 10:09:07;;;;;;;32.50;18.07;;;;;-1.20;100453.00;;;;9745082;30;20558;-77
2022/12/13 10:14:13;;;;;;;39.33;22.00;;;;;-0.60;100443.00;;;;9769720;30;20252;-77
2022/12/13 10:19:23;;;;;;;38.47;21.50;;;;;-0.20;100438.00;;;;9749805;30;20593;-77
2022/12/13 10:25:06;;;;;;;38.90;21.53;;;;;0.20;100440.00;;;;9763243;30;20276;-77
2022/12/13 10:30:11;;;;;;;33.77;18.83;;;;;0.50;100427.00;;;;9660090;30;20245;-77
2022/12/13 10:35:26;;;;;;;28.33;15.47;;;;;0.50;100405.00;;;;9741227;30;20579;-77
2022/12/13 10:40:35;;;;;;;26.73;14.83;;;;;0.40;100406.00;;;;9717237;30;20225;-77
2022/12/13 10:45:37;;;;;;;31.07;16.13;;;;;0.40;100416.00;;;;9750162;30;20765;-77
2022/12/13 10:50:39;;;;;;;26.90;15.17;;;;;0.60;100424.00;;;;9730163;30;20217;-77
2022/12/13 10:55:41;;;;;;;25.60;15.10;;;;;0.90;100413.00;;;;9730783;30;20663;-77
2022/12/13 11:00:45;;;;;;;22.93;14.03;;;;;1.10;100397.00;;;;9738908;30;20666;-77
2022/12/13 11:06:02;;;;;;;33.93;14.60;;;;;1.30;100395.00;;;;9753032;30;20225;-77
2022/12/13 11:11:06;;;;;;;24.83;13.30;;;;;1.40;100405.00;;;;9724993;30;20605;-77
2022/12/13 11:16:22;;;;;;;22.87;13.40;;;;;1.40;100418.00;;;;9726191;30;20213;-77
2022/12/13 11:21:27;;;;;;;22.73;12.97;;;;;1.30;100389.00;;;;9741921;30;20205;-76
2022/12/13 11:26:32;;;;;;;20.13;12.07;;;;;1.10;100382.00;;;;9741740;30;20210;-76
2022/12/13 11:31:52;;;;;;;26.60;12.67;;;;;1.20;100364.00;;;;9768517;30;20255;-76
2022/12/13 11:37:14;;;;;;;17.57;11.30;;;;;1.50;100365.00;;;;9772385;30;20280;-75
2022/12/13 11:42:49;;;;;;;25.90;13.20;;;;;1.50;100369.00;;;;9757914;30;20287;-76
2022/12/13 11:48:20;;;;;;;23.27;12.93;;;;;1.70;100367.00;;;;9731128;30;20241;-76
2022/12/13 11:53:48;;;;;;;25.37;12.67;;;;;1.70;100360.00;;;;9761149;30;20221;-76
2022/12/13 11:59:00;;;;;;;23.53;13.13;;;;;1.60;100343.00;;;;9745234;30;20193;-76
2022/12/13 12:04:17;;;;;;;19.93;12.33;;;;;1.60;100322.00;;;;9750883;30;20213;-76
2022/12/13 12:09:22;;;;;;;18.73;12.43;;;;;1.50;100320.00;;;;9766062;30;20740;-76
2022/12/13 12:14:44;;;;;;;26.63;11.70;;;;;1.50;100318.00;;;;9758632;30;20211;-76
2022/12/13 12:19:51;;;;;;;18.70;11.03;;;;;1.40;100325.00;;;;9742909;30;20282;-76
2022/12/13 12:25:11;;;;;;;19.47;11.63;;;;;1.50;100337.00;;;;9739862;30;20220;-76
2022/12/13 12:31:01;;;;;;;22.73;11.53;;;;;1.60;100334.00;;;;9747896;30;20775;-76
2022/12/13 12:36:15;;;;;;;22.00;12.00;;;;;1.70;100330.00;;;;9715852;30;20307;-76
2022/12/13 12:41:29;;;;;;;20.47;12.37;;;;;1.70;100314.00;;;;9749267;30;20229;-76
2022/12/13 12:46:36;;;;;;;20.63;11.17;;;;;1.50;100299.00;;;;9750558;30;20238;-76
2022/12/13 12:52:07;;;;;;;20.33;10.97;;;;;1.30;100288.00;;;;9771098;30;20237;-76
2022/12/13 12:57:31;;;;;;;22.20;12.13;;;;;1.20;100273.00;;;;9772879;30;20264;-75
2022/12/13 13:02:42;;;;;;;19.30;9.73;;;;;1.20;100278.00;;;;9743274;30;20210;-76
2022/12/13 13:07:50;;;;;;;23.83;12.17;;;;;1.10;100275.00;;;;9761608;30;20237;-76
2022/12/13 13:12:52;;;;;;;21.27;11.20;;;;;1.10;100269.00;;;;9729801;30;20221;-76
2022/12/13 13:18:46;;;;;;;22.40;10.97;;;;;1.10;100268.00;;;;9734838;30;20206;-76
2022/12/13 13:24:08;;;;;;;20.67;9.27;;;;;1.10;100265.00;;;;9723028;30;20219;-76
2022/12/13 13:29:25;;;;;;;18.57;10.30;;;;;1.00;100257.00;;;;9753011;30;20245;-76
2022/12/13 13:34:35;;;;;;;18.73;11.07;;;;;0.90;100263.00;;;;9762110;30;20201;-76
2022/12/13 13:40:00;;;;;;;22.93;12.00;;;;;0.80;100247.00;;;;9735517;30;20210;-75
2022/12/13 13:45:25;;;;;;;21.03;11.30;;;;;0.70;100233.00;;;;9770003;30;20245;-76
2022/12/13 13:50:57;;;;;;;20.73;10.87;;;;;0.70;100238.00;;;;9746174;30;20210;-76
2022/12/13 13:56:26;;;;;;;19.20;10.27;;;;;0.60;100224.00;;;;9768026;30;20217;-75
2022/12/13 14:02:02;;;;;;;22.13;11.13;;;;;0.60;100211.00;;;;9709164;30;20257;-75
2022/12/13 14:07:26;;;;;;;24.90;11.53;;;;;0.50;100211.00;;;;9754667;30;20268;-76
2022/12/13 14:13:22;;;;;;;21.40;11.63;;;;;0.40;100202.00;;;;9750218;30;20226;-75
2022/12/13 14:18:58;;;;;;;22.13;11.03;;;;;0.30;100202.00;;;;9682201;30;20294;-76
2022/12/13 14:24:37;;;;;;;19.73;10.70;;;;;0.30;100195.00;;;;9749590;30;20206;-76
2022/12/13 14:29:44;;;;;;;27.00;10.93;;;;;0.30;100205.00;;;;9746084;30;20273;-75
2022/12/13 14:34:59;;;;;;;25.30;11.60;;;;;0.30;100205.00;;;;9755089;30;20198;-75
2022/12/13 14:40:31;;;;;;;21.57;11.00;;;;;0.20;100193.00;;;;9748919;30;20206;-75
2022/12/13 14:45:37;;;;;;;23.00;11.10;;;;;0.10;100181.00;;;;9745065;30;20221;-75
2022/12/13 14:50:42;;;;;;;27.10;12.60;;;;;-0.10;100176.00;;;;9754164;30;20212;-75
2022/12/13 14:56:02;;;;;;;27.97;13.77;;;;;-0.20;100166.00;;;;9745988;30;20222;-75
2022/12/13 15:01:06;;;;;;;27.43;14.37;;;;;-0.50;100167.00;;;;9755449;30;20205;-75
2022/12/13 15:06:07;;;;;;;32.00;13.57;;;;;-0.70;100174.00;;;;9758431;30;20218;-75
2022/12/13 15:11:09;;;;;;;30.97;14.30;;;;;-0.80;100178.00;;;;9741890;30;20214;-75
2022/12/13 15:16:24;;;;;;;30.77;13.97;;;;;-0.80;100165.00;;;;9740398;30;20214;-76
2022/12/13 15:21:30;;;;;;;30.10;13.57;;;;;-0.90;100160.00;;;;9726560;30;20284;-75
2022/12/13 15:26:33;;;;;;;29.77;13.43;;;;;-0.90;100150.00;;;;9736151;30;20232;-75
2022/12/13 15:31:35;;;;;;;29.70;14.27;;;;;-1.00;100151.00;;;;9733560;30;20278;-75
2022/12/13 15:36:37;;;;;;;33.37;15.93;;;;;-1.10;100157.00;;;;9737064;30;20198;-75
2022/12/13 15:41:47;;;;;;;39.37;17.77;;;;;-1.20;100152.00;;;;9741868;30;20606;-75
2022/12/13 15:46:52;;;;;;;44.40;19.57;;;;;-1.40;100152.00;;;;9748731;30;20221;-75
2022/12/13 15:52:00;;;;;;;42.50;19.87;;;;;-1.50;100143.00;;;;9744363;30;20575;-75
2022/12/13 15:57:16;;;;;;;38.93;18.50;;;;;-1.60;100147.00;;;;9718974;30;20743;-76
2022/12/13 16:02:22;;;;;;;43.77;18.97;;;;;-1.70;100129.00;;;;9729179;30;20209;-76
2022/12/13 16:07:38;;;;;;;41.27;19.23;;;;;-1.70;100140.00;;;;9739692;30;20206;-76
2022/12/13 16:12:49;;;;;;;42.77;18.73;;;;;-1.70;100144.00;;;;9731706;30;20209;-75
2022/12/13 16:18:31;;;;;;;37.47;17.53;;;;;-1.80;100140.00;;;;9763428;30;20205;-75
2022/12/13 16:23:33;;;;;;;37.57;15.60;;;;;-1.80;100135.00;;;;9743234;30;20210;-75
2022/12/13 16:28:35;;;;;;;35.40;17.13;;;;;-1.80;100144.00;;;;9769891;30;20283;-75
2022/12/13 16:33:37;;;;;;;42.43;19.67;;;;;-1.80;100137.00;;;;9736374;30;20218;-75
2022/12/13 16:38:39;;;;;;;40.50;18.70;;;;;-1.80;100147.00;;;;9748045;30;20197;-75
2022/12/13 16:43:54;;;;;;;40.70;16.87;;;;;-1.80;100155.00;;;;9725005;30;20225;-76
2022/12/13 16:48:56;;;;;;;38.93;18.33;;;;;-1.80;100157.00;;;;9737515;30;20507;-75
2022/12/13 16:53:58;;;;;;;41.17;17.77;;;;;-1.80;100151.00;;;;9779745;30;20631;-75
2022/12/13 16:59:00;;;;;;;34.00;14.83;;;;;-1.80;100153.00;;;;9764886;30;20232;-76
2022/12/13 17:04:02;;;;;;;39.77;15.63;;;;;-1.90;100156.00;;;;9779256;30;20692;-76
2022/12/13 17:09:13;;;;;;;35.50;16.07;;;;;-1.90;100149.00;;;;9752705;30;20197;-75
2022/12/13 17:14:15;;;;;;;32.87;15.37;;;;;-1.90;100152.00;;;;9744132;30;20214;-76
2022/12/13 17:19:17;;;;;;;32.93;16.10;;;;;-1.90;100155.00;;;;9758803;30;20191;-76
2022/12/13 17:24:19;;;;;;;33.63;14.77;;;;;-1.90;100161.00;;;;9736754;30;20216;-76
2022/12/13 17:29:23;;;;;;;40.30;18.10;;;;;-1.90;100159.00;;;;9752648;30;20284;-76
2022/12/13 17:34:26;;;;;;;38.07;16.67;;;;;-1.90;100149.00;;;;9747386;30;20394;-76
2022/12/13 17:39:28;;;;;;;36.60;17.10;;;;;-1.90;100151.00;;;;9776379;30;20210;-76
2022/12/13 17:44:30;;;;;;;34.27;16.80;;;;;-2.00;100145.00;;;;9755321;30;20269;-76
2022/12/13 17:49:32;;;;;;;30.23;17.03;;;;;-2.00;100139.00;;;;9746949;30;20261;-76
2022/12/13 17:54:34;;;;;;;31.90;14.60;;;;;-2.00;100140.00;;;;9736139;30;20205;-76
2022/12/13 17:59:39;;;;;;;31.27;14.53;;;;;-2.00;100127.00;;;;9749882;30;20617;-76
2022/12/13 18:04:44;;;;;;;32.70;16.23;;;;;-2.10;100123.00;;;;9748961;30;20271;-76
2022/12/13 18:09:46;;;;;;;34.27;14.60;;;;;-2.10;100123.00;;;;9764949;30;20197;-76
2022/12/13 18:14:49;;;;;;;32.37;15.57;;;;;-2.20;100118.00;;;;9750467;30;20218;-76
2022/12/13 18:19:51;;;;;;;33.03;14.70;;;;;-2.20;100096.00;;;;9731493;30;20229;-76
2022/12/13 18:24:53;;;;;;;31.73;14.70;;;;;-2.30;100088.00;;;;9763818;30;20224;-76
2022/12/13 18:29:55;;;;;;;32.03;14.73;;;;;-2.30;100084.00;;;;9749415;30;20237;-76
2022/12/13 18:34:57;;;;;;;32.40;14.27;;;;;-2.30;100076.00;;;;9721540;30;20690;-76
2022/12/13 18:40:00;;;;;;;30.67;15.33;;;;;-2.40;100067.00;;;;9740932;30;20269;-76
2022/12/13 18:45:02;;;;;;;29.70;13.57;;;;;-2.40;100070.00;;;;9698862;30;20222;-76
2022/12/13 18:50:05;;;;;;;29.13;15.60;;;;;-2.40;100066.00;;;;9722335;30;20241;-76
2022/12/13 18:55:07;;;;;;;29.87;14.47;;;;;-2.40;100046.00;;;;9731241;30;20206;-76
2022/12/13 19:00:10;;;;;;;30.60;14.83;;;;;-2.50;100040.00;;;;9726470;30;20261;-76
2022/12/13 19:05:12;;;;;;;28.93;13.30;;;;;-2.60;100043.00;;;;9742177;30;20217;-76
2022/12/13 19:10:14;;;;;;;27.53;14.63;;;;;-2.60;100044.00;;;;9725719;30;20693;-76
2022/12/13 19:15:17;;;;;;;29.23;14.33;;;;;-2.70;100033.00;;;;9763217;30;20213;-76
2022/12/13 19:20:20;;;;;;;25.87;12.40;;;;;-2.80;100020.00;;;;9761643;30;20210;-76
2022/12/13 19:25:21;;;;;;;24.97;12.97;;;;;-2.80;100014.00;;;;9758898;30;20233;-76
2022/12/13 19:30:23;;;;;;;25.00;12.30;;;;;-2.80;100024.00;;;;9746046;30;20309;-76
2022/12/13 19:35:25;;;;;;;25.70;12.17;;;;;-2.90;100008.00;;;;9747210;30;20622;-76
2022/12/13 19:40:27;;;;;;;26.67;12.20;;;;;-2.90;99999.00;;;;9762175;30;20201;-76
2022/12/13 19:45:29;;;;;;;24.27;11.87;;;;;-2.90;99996.00;;;;9725556;30;20618;-76
2022/12/13 19:50:31;;;;;;;25.23;11.83;;;;;-2.90;99985.00;;;;9761207;30;20210;-76
2022/12/13 19:55:33;;;;;;;30.43;13.10;;;;;-2.90;99981.00;;;;9737027;30;20216;-76
2022/12/13 20:00:36;;;;;;;21.80;11.20;;;;;-2.90;99966.00;;;;9745101;30;20267;-77
2022/12/13 20:05:38;;;;;;;26.80;12.23;;;;;-2.90;99952.00;;;;9777908;30;20229;-76
2022/12/13 20:10:46;;;;;;;26.97;12.63;;;;;-2.80;99944.00;;;;9754696;30;20202;-76
2022/12/13 20:15:48;;;;;;;24.00;11.97;;;;;-2.80;99946.00;;;;9747051;30;20206;-76
2022/12/13 20:20:59;;;;;;;28.83;14.23;;;;;-2.80;99944.00;;;;9762632;30;20291;-76
2022/12/13 20:26:30;;;;;;;23.30;12.40;;;;;-2.80;99936.00;;;;9765335;30;20686;-77
2022/12/13 20:31:36;;;;;;;21.93;11.07;;;;;-2.80;99926.00;;;;9757735;30;20233;-77
2022/12/13 20:36:38;;;;;;;25.33;11.53;;;;;-2.80;99909.00;;;;9750300;30;20220;-77
2022/12/13 20:41:40;;;;;;;28.97;12.70;;;;;-2.80;99902.00;;;;9738771;30;20260;-76
2022/12/13 20:46:42;;;;;;;21.63;11.90;;;;;-2.80;99906.00;;;;9729440;30;20218;-76
2022/12/13 20:51:44;;;;;;;27.20;12.70;;;;;-2.80;99904.00;;;;9744250;30;20221;-77
2022/12/13 20:56:46;;;;;;;30.37;12.60;;;;;-2.90;99912.00;;;;9751623;30;20205;-76
2022/12/13 21:01:48;;;;;;;22.93;10.97;;;;;-2.90;99906.00;;;;9761045;30;20222;-76
2022/12/13 21:06:50;;;;;;;19.97;10.53;;;;;-2.90;99898.00;;;;9746049;30;20222;-76
2022/12/13 21:11:52;;;;;;;27.53;11.43;;;;;-2.90;99890.00;;;;9764041;30;20686;-76
2022/12/13 21:16:59;;;;;;;23.20;10.30;;;;;-2.90;99894.00;;;;9764884;30;20568;-76
2022/12/13 21:22:01;;;;;;;30.87;12.33;;;;;-3.00;99887.00;;;;9728177;30;20209;-76
2022/12/13 21:27:03;;;;;;;22.03;11.87;;;;;-3.00;99895.00;;;;9759676;30;20217;-76
2022/12/13 21:32:05;;;;;;;22.23;12.30;;;;;-3.00;99880.00;;;;9712448;30;20270;-76
2022/12/13 21:37:07;;;;;;;31.30;13.83;;;;;-3.00;99884.00;;;;9769661;30;20198;-76
2022/12/13 21:42:09;;;;;;;21.20;10.70;;;;;-3.10;99879.00;;;;9748203;30;20206;-76
2022/12/13 21:47:11;;;;;;;19.33;10.07;;;;;-3.00;99865.00;;;;9761352;30;20561;-76
2022/12/13 21:52:14;;;;;;;20.43;10.77;;;;;-3.10;99865.00;;;;9741324;30;20210;-76
2022/12/13 22:02:37;;;;;;;30.07;13.43;;;;;-3.20;99861.00;;;;9763648;30;20197;-76
2022/12/13 22:07:39;;;;;;;29.93;13.40;;;;;-3.30;99852.00;;;;9776251;30;20229;-76
2022/12/13 22:12:41;;;;;;;29.10;12.23;;;;;-3.30;99843.00;;;;9739461;30;20277;-76
2022/12/13 22:17:42;;;;;;;30.63;14.43;;;;;-3.30;99835.00;;;;9711367;30;20202;-76
2022/12/13 22:22:47;;;;;;;26.10;13.10;;;;;-3.40;99833.00;;;;9740645;30;20281;-76
2022/12/13 22:27:49;;;;;;;27.93;13.10;;;;;-3.50;99832.00;;;;9764111;30;20256;-76
2022/12/13 22:32:51;;;;;;;27.90;12.40;;;;;-3.60;99831.00;;;;9709569;30;20222;-76
2022/12/13 22:37:53;;;;;;;28.57;13.20;;;;;-3.60;99832.00;;;;9714566;30;20214;-76
2022/12/13 22:43:01;;;;;;;26.70;13.57;;;;;-3.70;99826.00;;;;9737013;30;20217;-76
2022/12/13 22:48:04;;;;;;;25.37;12.47;;;;;-3.80;99835.00;;;;9751374;30;20240;-76
2022/12/13 22:53:06;;;;;;;25.17;12.37;;;;;-3.90;99832.00;;;;9735988;30;20986;-76
2022/12/13 22:58:07;;;;;;;22.47;13.23;;;;;-4.00;99831.00;;;;9725242;30;20203;-76
2022/12/13 23:03:10;;;;;;;28.43;12.33;;;;;-4.00;99827.00;;;;9746914;30;20208;-76
2022/12/13 23:08:12;;;;;;;28.77;12.90;;;;;-4.00;99825.00;;;;9747154;30;20399;-76
2022/12/13 23:13:13;;;;;;;22.23;11.73;;;;;-4.10;99836.00;;;;9771789;30;20214;-76
2022/12/13 23:18:15;;;;;;;27.17;13.70;;;;;-4.20;99828.00;;;;9740086;30;20245;-76
2022/12/13 23:23:17;;;;;;;33.70;11.93;;;;;-4.20;99826.00;;;;9734576;30;20210;-76
2022/12/13 23:28:19;;;;;;;24.00;10.63;;;;;-4.30;99806.00;;;;9739825;30;20229;-76
2022/12/13 23:33:21;;;;;;;25.73;11.77;;;;;-4.30;99799.00;;;;9757371;30;20889;-77
2022/12/13 23:38:23;;;;;;;24.93;11.07;;;;;-4.30;99802.00;;;;9742356;30;20285;-76
2022/12/13 23:43:28;;;;;;;21.23;10.77;;;;;-4.40;99791.00;;;;9763701;30;20720;-77
2022/12/13 23:48:30;;;;;;;19.80;10.10;;;;;-4.40;99790.00;;;;9767910;30;20213;-76
2022/12/13 23:53:33;;;;;;;20.00;9.97;;;;;-4.30;99793.00;;;;9734815;30;20209;-77
2022/12/13 23:58:36;;;;;;;19.80;10.27;;;;;-4.20;99796.00;;;;9780833;30;20197;-77
